Time;durP1;ratioP1;P1;durP2;ratioP2;P2;SDS_P1;SDS_P2;PMS_P1;PMS_P2;Temp;Humidity;BMP_temperature;BMP_pressure;BME280_temperature;BME280_humidity;BME280_pressure;Samples;Min_cycle;Max_cycle;Signal;HPM_P1;HPM_P2
2022/07/09 00:01:46;;;;;;;9.35;4.38;;;16.10;99.90;;;;;;5086389;28;20036;-65
2022/07/09 00:04:12;;;;;;;7.25;4.50;;;16.10;99.90;;;;;;5089700;28;20109;-66
2022/07/09 00:06:37;;;;;;;6.50;4.32;;;16.10;99.90;;;;;;5088178;28;20036;-66
2022/07/09 00:09:03;;;;;;;8.32;4.63;;;16.10;99.90;;;;;;5089477;28;20074;-66
2022/07/09 00:11:29;;;;;;;8.60;4.88;;;16.10;99.90;;;;;;5089809;28;20036;-65
2022/07/09 00:13:54;;;;;;;9.98;4.93;;;16.10;99.90;;;;;;5087551;28;20498;-66
2022/07/09 00:16:20;;;;;;;6.82;4.72;;;16.10;99.90;;;;;;5089128;28;20042;-66
2022/07/09 00:18:46;;;;;;;11.25;4.47;;;16.10;99.90;;;;;;5100156;28;20133;-66
2022/07/09 00:21:11;;;;;;;7.13;4.20;;;16.10;99.90;;;;;;5088664;28;20655;-66
2022/07/09 00:23:37;;;;;;;9.82;5.05;;;16.10;99.90;;;;;;5089479;28;20474;-66
2022/07/09 00:26:03;;;;;;;7.07;4.45;;;16.10;99.90;;;;;;5088446;28;20047;-66
2022/07/09 00:28:28;;;;;;;9.95;5.05;;;16.00;99.90;;;;;;5087788;28;20032;-67
2022/07/09 00:30:54;;;;;;;9.45;4.63;;;16.00;99.90;;;;;;5090330;28;20110;-65
2022/07/09 00:33:19;;;;;;;6.65;4.80;;;16.10;99.90;;;;;;5086736;28;20028;-65
2022/07/09 00:35:45;;;;;;;6.43;4.50;;;16.10;99.90;;;;;;5087754;28;20085;-65
2022/07/09 00:38:11;;;;;;;6.40;3.83;;;16.10;99.90;;;;;;5088268;28;20046;-67
2022/07/09 00:40:36;;;;;;;9.40;4.63;;;16.00;99.90;;;;;;5089827;28;20551;-65
2022/07/09 00:43:02;;;;;;;11.52;4.57;;;16.10;99.90;;;;;;5087461;28;20083;-65
2022/07/09 00:45:28;;;;;;;8.77;4.55;;;16.10;99.90;;;;;;5119221;28;20123;-67
2022/07/09 00:47:53;;;;;;;9.82;4.53;;;16.10;99.90;;;;;;5070482;28;20080;-66
2022/07/09 00:50:19;;;;;;;9.02;4.80;;;16.10;99.90;;;;;;5090998;28;20437;-65
2022/07/09 00:52:45;;;;;;;9.10;4.68;;;16.10;99.90;;;;;;5069774;28;20113;-65
2022/07/09 00:55:12;;;;;;;8.70;4.28;;;16.10;99.90;;;;;;5085595;28;20068;-65
2022/07/09 00:57:40;;;;;;;11.95;4.80;;;16.10;99.90;;;;;;5090646;28;20082;-65
2022/07/09 01:00:06;;;;;;;7.70;4.32;;;16.10;99.90;;;;;;5092402;28;20089;-65
2022/07/09 01:02:33;;;;;;;6.47;4.57;;;16.10;99.90;;;;;;5092019;28;20221;-65
2022/07/09 01:04:58;;;;;;;8.43;4.88;;;16.10;99.90;;;;;;5090463;28;20036;-66
2022/07/09 01:07:24;;;;;;;8.85;5.15;;;16.10;99.90;;;;;;5089779;28;20036;-67
2022/07/09 01:09:50;;;;;;;7.57;5.32;;;16.00;99.90;;;;;;5091803;28;20124;-65
2022/07/09 01:12:16;;;;;;;12.18;5.70;;;16.00;99.90;;;;;;5091837;28;20040;-66
2022/07/09 01:14:41;;;;;;;10.13;5.60;;;16.00;99.90;;;;;;5091877;28;20040;-67
2022/07/09 01:17:07;;;;;;;8.57;5.10;;;16.00;99.90;;;;;;5093593;28;20032;-66
2022/07/09 01:19:34;;;;;;;9.10;5.90;;;16.00;99.90;;;;;;5091695;28;20047;-66
2022/07/09 01:22:00;;;;;;;9.07;5.40;;;16.00;99.90;;;;;;5091732;28;20162;-66
2022/07/09 01:24:26;;;;;;;10.10;5.85;;;15.90;99.90;;;;;;5092815;28;20039;-67
2022/07/09 01:26:53;;;;;;;9.77;5.70;;;15.90;99.90;;;;;;5091134;28;20040;-65
2022/07/09 01:29:20;;;;;;;10.00;6.22;;;15.90;99.90;;;;;;5075935;28;20040;-66
2022/07/09 01:31:45;;;;;;;7.82;5.53;;;15.90;99.90;;;;;;5091619;28;20036;-65
2022/07/09 01:34:11;;;;;;;15.43;5.43;;;15.80;99.90;;;;;;5090997;28;20043;-65
2022/07/09 01:36:37;;;;;;;7.25;5.50;;;15.80;99.90;;;;;;5091301;28;20036;-66
2022/07/09 01:39:03;;;;;;;13.70;5.50;;;15.80;99.90;;;;;;5090613;28;20395;-66
2022/07/09 01:41:30;;;;;;;20.52;5.22;;;15.70;99.90;;;;;;5091573;28;20039;-66
2022/07/09 01:43:56;;;;;;;8.07;4.70;;;15.60;99.90;;;;;;5091974;28;20123;-66
2022/07/09 01:46:22;;;;;;;4.80;4.22;;;15.60;99.90;;;;;;5091801;28;20596;-66
2022/07/09 01:48:47;;;;;;;4.60;3.88;;;15.60;99.90;;;;;;5089955;28;20436;-66
2022/07/09 01:51:13;;;;;;;3.70;3.17;;;15.50;99.90;;;;;;5091252;28;20097;-66
2022/07/09 01:53:39;;;;;;;4.38;3.10;;;15.50;99.90;;;;;;5092409;28;20032;-65
2022/07/09 01:56:10;;;;;;;5.63;3.97;;;15.50;99.90;;;;;;5090817;28;20369;-67
2022/07/09 01:58:36;;;;;;;3.92;3.42;;;15.50;99.90;;;;;;5090192;28;20044;-65
2022/07/09 02:01:02;;;;;;;6.18;3.95;;;15.40;99.90;;;;;;5091929;28;20405;-66
2022/07/09 02:03:28;;;;;;;5.25;3.42;;;15.40;99.90;;;;;;5091081;28;20448;-66
2022/07/09 02:05:54;;;;;;;5.15;3.63;;;15.40;99.90;;;;;;5091648;28;20036;-66
2022/07/09 02:08:19;;;;;;;7.50;4.30;;;15.40;99.90;;;;;;5091081;28;20052;-66
2022/07/09 02:10:45;;;;;;;4.88;3.60;;;15.40;99.90;;;;;;5090450;28;20517;-67
2022/07/09 02:13:12;;;;;;;6.88;3.80;;;15.50;99.90;;;;;;5090651;28;20074;-65
2022/07/09 02:15:39;;;;;;;4.32;3.70;;;15.50;99.90;;;;;;5090946;28;20298;-66
2022/07/09 02:18:04;;;;;;;4.55;3.70;;;15.40;99.90;;;;;;5090759;28;20360;-65
2022/07/09 02:20:30;;;;;;;6.25;3.60;;;15.40;99.90;;;;;;5089155;28;20050;-65
2022/07/09 02:22:56;;;;;;;5.65;3.60;;;15.40;99.90;;;;;;5091134;28;20389;-67
2022/07/09 02:25:22;;;;;;;5.88;4.03;;;15.40;99.90;;;;;;5089426;28;20064;-65
2022/07/09 02:27:47;;;;;;;5.35;4.20;;;15.50;99.90;;;;;;5090549;28;20052;-65
2022/07/09 02:30:13;;;;;;;4.68;3.90;;;15.50;99.90;;;;;;5089924;28;20044;-65
2022/07/09 02:32:39;;;;;;;6.07;3.70;;;15.50;99.90;;;;;;5124085;27;20109;-67
2022/07/09 02:35:06;;;;;;;5.07;3.45;;;15.50;99.90;;;;;;5090172;28;20407;-66
2022/07/09 02:37:32;;;;;;;7.38;4.25;;;15.50;99.90;;;;;;5090826;28;20035;-66
2022/07/09 02:39:58;;;;;;;4.57;3.80;;;15.50;99.90;;;;;;5089024;28;20028;-65
2022/07/09 02:42:23;;;;;;;7.03;4.38;;;15.50;99.90;;;;;;5086319;28;20040;-65
2022/07/09 02:44:49;;;;;;;5.97;4.05;;;15.50;99.90;;;;;;5087033;28;20139;-66
2022/07/09 02:47:15;;;;;;;5.95;4.00;;;15.50;99.90;;;;;;5090513;28;20139;-66
2022/07/09 02:49:41;;;;;;;5.80;4.68;;;15.50;99.90;;;;;;5089593;28;20048;-65
2022/07/09 02:52:07;;;;;;;6.53;4.50;;;15.50;99.90;;;;;;5122905;27;20044;-65
2022/07/09 02:54:33;;;;;;;6.78;4.20;;;15.40;99.90;;;;;;5072330;28;20044;-66
2022/07/09 02:57:00;;;;;;;7.93;4.15;;;15.50;99.90;;;;;;5089269;28;20044;-66
2022/07/09 02:59:26;;;;;;;10.23;4.80;;;15.50;99.90;;;;;;5090251;28;20390;-66
2022/07/09 03:01:51;;;;;;;8.30;5.38;;;15.50;99.90;;;;;;5089342;28;20047;-66
2022/07/09 03:04:17;;;;;;;9.55;5.15;;;15.50;99.90;;;;;;5092016;28;20542;-66
2022/07/09 03:06:43;;;;;;;7.03;4.95;;;15.40;99.90;;;;;;5090922;28;20059;-67
2022/07/09 03:09:09;;;;;;;7.25;5.10;;;15.50;99.90;;;;;;5089043;28;20394;-66
2022/07/09 03:11:34;;;;;;;10.35;4.53;;;15.50;99.90;;;;;;5092327;28;20108;-66
2022/07/09 03:14:00;;;;;;;8.63;4.68;;;15.50;99.90;;;;;;5090334;28;20036;-66
2022/07/09 03:16:26;;;;;;;10.77;5.25;;;15.50;99.90;;;;;;5088443;28;20168;-66
2022/07/09 03:18:52;;;;;;;8.20;4.97;;;15.50;99.90;;;;;;5088393;28;20036;-65
2022/07/09 03:21:17;;;;;;;9.15;4.57;;;15.50;99.90;;;;;;5072569;28;20468;-67
2022/07/09 03:23:43;;;;;;;6.78;4.85;;;15.50;99.90;;;;;;5089170;28;20446;-66
2022/07/09 03:26:09;;;;;;;7.20;4.88;;;15.60;99.90;;;;;;5087653;28;20071;-66
2022/07/09 03:28:35;;;;;;;7.43;4.85;;;15.60;99.90;;;;;;5090411;28;20125;-67
2022/07/09 03:31:01;;;;;;;10.02;4.90;;;15.60;99.90;;;;;;5087665;28;20514;-66
2022/07/09 03:33:26;;;;;;;7.55;5.25;;;15.60;99.90;;;;;;5119277;27;20075;-67
2022/07/09 03:35:56;;;;;;;8.50;4.90;;;15.60;99.90;;;;;;5090666;28;20114;-66
2022/07/09 03:38:23;;;;;;;9.05;5.00;;;15.60;99.90;;;;;;5089548;28;20097;-65
2022/07/09 03:40:49;;;;;;;6.07;4.43;;;15.60;99.90;;;;;;5088357;28;20038;-65
2022/07/09 03:43:15;;;;;;;6.85;4.30;;;15.70;99.90;;;;;;5089296;28;20123;-65
2022/07/09 03:45:40;;;;;;;8.48;4.45;;;15.60;99.90;;;;;;5087324;28;20046;-65
2022/07/09 03:48:06;;;;;;;7.10;4.20;;;15.70;99.90;;;;;;5089524;28;20167;-67
2022/07/09 03:50:32;;;;;;;5.90;4.40;;;15.70;99.90;;;;;;5087553;28;20111;-66
2022/07/09 03:52:58;;;;;;;7.03;4.25;;;15.70;99.90;;;;;;5120334;27;20044;-65
2022/07/09 03:55:23;;;;;;;8.88;4.43;;;15.70;99.90;;;;;;5089386;28;20039;-65
2022/07/09 03:57:49;;;;;;;7.72;4.43;;;15.60;99.90;;;;;;5091947;28;20036;-66
2022/07/09 04:00:15;;;;;;;7.72;4.35;;;15.60;99.90;;;;;;5089773;28;20084;-66
2022/07/09 04:02:41;;;;;;;5.13;3.85;;;15.60;99.90;;;;;;5089277;28;20090;-64
2022/07/09 04:05:08;;;;;;;8.77;4.40;;;15.60;99.90;;;;;;5088741;28;20078;-65
2022/07/09 04:07:34;;;;;;;6.28;3.92;;;15.70;99.90;;;;;;5104024;28;20090;-66
2022/07/09 04:10:00;;;;;;;6.57;4.22;;;15.70;99.90;;;;;;5122766;27;20044;-67
2022/07/09 04:12:25;;;;;;;7.38;4.53;;;15.70;99.90;;;;;;5089498;28;20668;-67
2022/07/09 04:14:51;;;;;;;6.22;3.60;;;15.70;99.90;;;;;;5090062;28;20032;-66
2022/07/09 04:17:17;;;;;;;7.18;4.45;;;15.70;99.90;;;;;;5089326;28;20036;-67
2022/07/09 04:19:43;;;;;;;9.05;5.00;;;15.70;99.90;;;;;;5089755;28;20035;-65
2022/07/09 04:22:09;;;;;;;6.53;4.45;;;15.70;99.90;;;;;;5088637;28;20062;-66
2022/07/09 04:24:34;;;;;;;6.30;4.50;;;15.70;99.90;;;;;;5088946;28;20036;-67
2022/07/09 04:27:00;;;;;;;8.30;4.75;;;15.70;99.90;;;;;;5088384;28;20089;-66
2022/07/09 04:29:25;;;;;;;7.60;4.80;;;15.70;99.90;;;;;;5121425;27;20044;-66
2022/07/09 04:31:51;;;;;;;7.32;5.10;;;15.70;99.90;;;;;;5089660;28;20087;-65
2022/07/09 04:34:17;;;;;;;7.00;4.88;;;15.70;99.90;;;;;;5093621;28;20122;-65
2022/07/09 04:36:43;;;;;;;8.02;4.68;;;15.70;99.90;;;;;;5090307;28;20039;-66
2022/07/09 04:39:09;;;;;;;7.53;4.65;;;15.70;99.90;;;;;;5092989;28;20059;-66
2022/07/09 04:41:35;;;;;;;8.02;4.90;;;15.70;99.90;;;;;;5092642;28;20150;-65
2022/07/09 04:44:00;;;;;;;7.05;4.95;;;15.70;99.90;;;;;;5091419;28;20131;-66
2022/07/09 04:46:27;;;;;;;7.43;4.90;;;15.70;99.90;;;;;;5092305;28;20106;-66
2022/07/09 04:48:53;;;;;;;7.68;4.72;;;15.70;99.90;;;;;;5091004;28;20517;-66
2022/07/09 04:51:18;;;;;;;9.25;5.43;;;15.70;99.90;;;;;;5091739;28;20064;-63
2022/07/09 04:53:44;;;;;;;7.82;4.57;;;15.80;99.90;;;;;;5092266;28;20094;-65
2022/07/09 04:56:10;;;;;;;9.32;4.40;;;15.80;99.90;;;;;;5092475;28;20038;-65
2022/07/09 04:58:36;;;;;;;8.27;4.70;;;15.80;99.90;;;;;;5091591;28;20087;-65
2022/07/09 05:01:03;;;;;;;7.78;4.20;;;15.90;99.90;;;;;;5074191;28;20044;-65
2022/07/09 05:03:29;;;;;;;6.45;4.53;;;16.00;99.90;;;;;;5093182;28;20042;-65
2022/07/09 05:05:55;;;;;;;8.38;4.90;;;16.00;99.90;;;;;;5075428;28;20390;-65
2022/07/09 05:08:20;;;;;;;6.90;4.30;;;16.10;99.90;;;;;;5092487;28;20051;-64
2022/07/09 05:10:46;;;;;;;6.38;4.57;;;16.20;99.90;;;;;;5091718;28;20042;-66
2022/07/09 05:13:12;;;;;;;8.00;4.68;;;16.20;99.90;;;;;;5092054;28;20398;-66
2022/07/09 05:15:37;;;;;;;8.02;4.35;;;16.30;99.90;;;;;;5093817;28;20115;-65
2022/07/09 05:18:03;;;;;;;7.47;4.35;;;16.30;99.90;;;;;;5091740;28;20094;-65
2022/07/09 05:20:30;;;;;;;7.05;4.95;;;16.30;99.90;;;;;;5091398;28;20036;-66
2022/07/09 05:22:56;;;;;;;8.10;4.90;;;16.30;99.90;;;;;;5092508;28;20044;-66
2022/07/09 05:25:22;;;;;;;8.30;4.47;;;16.30;99.90;;;;;;5093287;28;20036;-65
2022/07/09 05:27:48;;;;;;;7.35;4.47;;;16.30;99.90;;;;;;5090961;28;20109;-66
2022/07/09 05:30:14;;;;;;;6.88;4.25;;;16.30;99.90;;;;;;5090421;28;20052;-67
2022/07/09 05:32:41;;;;;;;7.05;4.43;;;16.30;99.90;;;;;;5091091;28;20104;-65
2022/07/09 05:35:08;;;;;;;9.00;4.47;;;16.40;99.90;;;;;;5090157;28;20048;-67
2022/07/09 05:37:40;;;;;;;9.27;4.80;;;16.40;99.90;;;;;;5091811;28;20111;-65
2022/07/09 05:40:06;;;;;;;5.78;4.25;;;16.40;99.90;;;;;;5091627;28;20063;-65
2022/07/09 05:42:32;;;;;;;7.85;4.50;;;16.50;99.90;;;;;;5088542;28;20040;-65
2022/07/09 05:44:59;;;;;;;7.95;4.80;;;16.50;99.90;;;;;;5090829;28;20444;-64
2022/07/09 05:47:25;;;;;;;6.88;4.60;;;16.60;99.90;;;;;;5092007;28;20537;-66
2022/07/09 05:49:50;;;;;;;8.32;4.75;;;16.70;99.90;;;;;;5091684;28;20124;-66
2022/07/09 05:52:16;;;;;;;7.78;4.32;;;16.80;99.90;;;;;;5090276;28;20122;-65
2022/07/09 05:54:42;;;;;;;6.95;4.40;;;16.90;99.90;;;;;;5089673;28;20039;-64
2022/07/09 05:57:07;;;;;;;8.30;4.30;;;17.00;99.90;;;;;;5122759;28;20040;-67
2022/07/09 05:59:33;;;;;;;8.48;4.55;;;17.10;99.90;;;;;;5090188;28;20394;-64
2022/07/09 06:01:59;;;;;;;6.03;3.90;;;17.10;99.90;;;;;;5091049;28;20035;-65
2022/07/09 06:04:26;;;;;;;9.05;4.13;;;17.20;99.90;;;;;;5087913;28;20098;-64
2022/07/09 06:06:51;;;;;;;7.85;4.05;;;17.10;99.90;;;;;;5092258;28;20035;-67
2022/07/09 06:09:17;;;;;;;6.15;4.25;;;17.20;99.90;;;;;;5090505;28;20548;-65
2022/07/09 06:11:43;;;;;;;7.18;3.95;;;17.20;99.90;;;;;;5087396;28;20036;-67
2022/07/09 06:14:08;;;;;;;7.25;4.30;;;17.20;99.90;;;;;;5091985;28;20126;-63
2022/07/09 06:16:34;;;;;;;8.55;3.95;;;17.20;99.90;;;;;;5089602;28;20032;-64
2022/07/09 06:18:59;;;;;;;8.10;3.50;;;17.20;99.90;;;;;;5090094;28;20043;-65
2022/07/09 06:21:25;;;;;;;6.95;3.58;;;17.30;99.90;;;;;;5087868;28;20032;-64
2022/07/09 06:23:50;;;;;;;6.13;3.47;;;17.30;99.90;;;;;;5089640;28;20495;-66
2022/07/09 06:26:16;;;;;;;6.60;3.35;;;17.30;99.90;;;;;;5090827;28;20063;-65
2022/07/09 06:28:42;;;;;;;4.53;3.20;;;17.30;99.90;;;;;;5124567;28;20062;-65
2022/07/09 06:31:08;;;;;;;4.85;3.10;;;17.40;99.90;;;;;;5053716;28;1078985;-66
2022/07/09 06:33:33;;;;;;;6.97;3.67;;;17.30;99.90;;;;;;5090464;28;20750;-65
2022/07/09 06:35:59;;;;;;;6.50;3.33;;;17.30;99.90;;;;;;5092146;28;20040;-65
2022/07/09 06:38:28;;;;;;;5.32;3.55;;;17.40;99.90;;;;;;5090784;28;20036;-64
2022/07/09 06:40:56;;;;;;;5.72;3.38;;;17.40;99.90;;;;;;5125013;27;20042;-66
2022/07/09 06:43:22;;;;;;;7.35;3.55;;;17.40;99.90;;;;;;5091435;28;20039;-65
2022/07/09 06:45:48;;;;;;;4.10;3.38;;;17.40;99.90;;;;;;5090058;28;20051;-65
2022/07/09 06:48:14;;;;;;;4.88;3.50;;;17.40;99.90;;;;;;5090310;28;20044;-65
2022/07/09 06:50:39;;;;;;;5.63;3.25;;;17.40;99.90;;;;;;5090387;28;20067;-66
2022/07/09 06:53:05;;;;;;;4.65;3.10;;;17.40;99.90;;;;;;5089404;28;20119;-66
2022/07/09 06:55:31;;;;;;;7.93;3.53;;;17.50;99.90;;;;;;5088759;28;20371;-63
2022/07/09 06:57:57;;;;;;;5.50;3.13;;;17.50;99.90;;;;;;5123560;27;20483;-64
2022/07/09 07:00:23;;;;;;;7.22;3.20;;;17.50;99.90;;;;;;5091451;28;20036;-65
2022/07/09 07:02:49;;;;;;;5.38;3.42;;;17.60;99.90;;;;;;5090014;28;20040;-64
2022/07/09 07:05:15;;;;;;;4.95;3.30;;;17.60;99.90;;;;;;5089932;28;20054;-65
2022/07/09 07:07:41;;;;;;;6.95;3.20;;;17.60;99.90;;;;;;5090964;28;20036;-65
2022/07/09 07:10:08;;;;;;;8.23;3.45;;;17.70;99.90;;;;;;5091208;28;20040;-66
2022/07/09 07:12:34;;;;;;;5.75;3.42;;;17.80;99.90;;;;;;5088293;28;20044;-69
2022/07/09 07:14:59;;;;;;;4.57;3.20;;;17.90;99.90;;;;;;5090434;28;20399;-66
2022/07/09 07:17:25;;;;;;;5.43;3.17;;;17.90;99.90;;;;;;5121874;27;20051;-66
2022/07/09 07:19:51;;;;;;;4.97;3.17;;;18.00;99.90;;;;;;5073082;28;20040;-66
2022/07/09 07:22:16;;;;;;;4.50;2.75;;;18.10;99.90;;;;;;5090997;28;20039;-64
2022/07/09 07:24:42;;;;;;;4.82;3.28;;;18.20;99.90;;;;;;5123809;27;20485;-66
2022/07/09 07:27:08;;;;;;;5.13;2.70;;;18.30;99.90;;;;;;5087354;28;20040;-65
2022/07/09 07:29:33;;;;;;;5.70;3.10;;;18.40;99.90;;;;;;5089205;28;20060;-65
2022/07/09 07:31:59;;;;;;;5.88;3.00;;;18.40;99.90;;;;;;5089361;28;20046;-66
2022/07/09 07:34:25;;;;;;;6.20;2.92;;;18.40;99.90;;;;;;5090685;28;20067;-67
2022/07/09 07:36:51;;;;;;;4.72;2.45;;;18.40;99.90;;;;;;5089239;28;20036;-66
2022/07/09 07:39:18;;;;;;;4.75;2.53;;;18.40;99.90;;;;;;5090157;28;20040;-66
2022/07/09 07:41:44;;;;;;;5.35;2.92;;;18.40;99.90;;;;;;5089365;28;20039;-66
2022/07/09 07:44:10;;;;;;;4.35;2.30;;;18.40;99.90;;;;;;5089430;28;20402;-66
2022/07/09 07:46:35;;;;;;;4.82;2.00;;;18.40;99.90;;;;;;5089233;28;20052;-66
2022/07/09 07:49:01;;;;;;;4.82;2.30;;;18.40;99.90;;;;;;5086962;28;20376;-66
2022/07/09 07:51:27;;;;;;;5.07;2.38;;;18.40;99.90;;;;;;5089517;28;20092;-65
2022/07/09 07:53:52;;;;;;;2.80;1.73;;;18.40;99.90;;;;;;5089152;28;20051;-66
2022/07/09 07:56:18;;;;;;;3.78;2.50;;;18.40;99.90;;;;;;5087987;28;20091;-65
2022/07/09 07:58:44;;;;;;;3.50;1.80;;;18.50;99.90;;;;;;5088898;28;20036;-65
2022/07/09 08:01:09;;;;;;;3.13;1.58;;;18.50;99.90;;;;;;5088910;28;20044;-66
2022/07/09 08:03:35;;;;;;;3.45;1.70;;;18.50;99.90;;;;;;5122805;27;20410;-64
2022/07/09 08:06:01;;;;;;;3.90;1.92;;;18.50;99.90;;;;;;5085029;28;20052;-63
2022/07/09 08:08:27;;;;;;;2.13;1.38;;;18.50;99.90;;;;;;5086529;28;20039;-65
2022/07/09 08:10:52;;;;;;;4.35;1.73;;;18.50;99.90;;;;;;5088058;28;20398;-65
2022/07/09 08:13:18;;;;;;;1.83;1.38;;;18.60;99.90;;;;;;5088714;28;20052;-65
2022/07/09 08:15:44;;;;;;;3.88;1.30;;;18.70;99.90;;;;;;5086171;28;20388;-65
2022/07/09 08:18:12;;;;;;;3.28;1.38;;;18.80;99.90;;;;;;5088832;28;20040;-65
2022/07/09 08:20:39;;;;;;;2.03;1.10;;;18.90;99.90;;;;;;5089328;28;20099;-66
2022/07/09 08:23:05;;;;;;;2.55;1.30;;;19.00;99.90;;;;;;5088875;28;20479;-64
2022/07/09 08:25:30;;;;;;;5.70;1.30;;;19.00;99.90;;;;;;5086805;28;20093;-65
2022/07/09 08:27:56;;;;;;;3.15;1.58;;;19.00;99.90;;;;;;5122554;28;20071;-65
2022/07/09 08:30:22;;;;;;;2.58;1.13;;;19.00;99.90;;;;;;5088258;28;20055;-66
2022/07/09 08:32:48;;;;;;;3.88;1.60;;;19.00;99.90;;;;;;5088682;28;20058;-65
2022/07/09 08:35:13;;;;;;;3.67;1.45;;;19.00;99.90;;;;;;5088708;28;20076;-66
2022/07/09 08:37:39;;;;;;;2.17;1.20;;;18.90;99.90;;;;;;5121928;28;20040;-65
2022/07/09 08:40:06;;;;;;;6.78;1.50;;;19.00;99.90;;;;;;5088400;28;20075;-66
2022/07/09 08:42:32;;;;;;;3.22;0.80;;;19.10;99.90;;;;;;5089040;28;20048;-65
2022/07/09 08:44:58;;;;;;;2.38;1.10;;;19.20;99.90;;;;;;5088903;28;20105;-64
2022/07/09 08:47:25;;;;;;;3.17;1.13;;;19.30;99.90;;;;;;5071625;28;20075;-65
2022/07/09 08:49:56;;;;;;;1.50;1.02;;;19.40;99.90;;;;;;5088289;28;20035;-65
2022/07/09 08:52:23;;;;;;;1.98;1.30;;;19.60;99.90;;;;;;5087512;28;20035;-65
2022/07/09 08:54:50;;;;;;;2.95;1.20;;;19.60;99.90;;;;;;5088702;28;20032;-66
2022/07/09 08:57:15;;;;;;;1.95;1.10;;;19.60;99.90;;;;;;5088543;28;20032;-65
2022/07/09 08:59:41;;;;;;;2.53;1.20;;;19.80;99.90;;;;;;5088068;28;20047;-65
2022/07/09 09:02:11;;;;;;;2.75;1.17;;;19.90;99.90;;;;;;5086669;28;20125;-65
2022/07/09 09:04:40;;;;;;;9.35;1.40;;;20.10;99.90;;;;;;5071113;28;20046;-64
2022/07/09 09:07:16;;;;;;;3.17;1.30;;;20.10;99.90;;;;;;5088009;28;20126;-65
2022/07/09 09:09:42;;;;;;;4.97;1.92;;;20.10;99.90;;;;;;5071019;28;20610;-65
2022/07/09 09:12:09;;;;;;;5.80;1.10;;;20.20;99.90;;;;;;5088194;28;20040;-65
2022/07/09 09:14:35;;;;;;;2.80;1.10;;;20.30;99.90;;;;;;5086403;28;20183;-66
2022/07/09 09:17:14;;;;;;;2.45;1.27;;;20.50;99.90;;;;;;5120296;27;20047;-65
2022/07/09 09:19:40;;;;;;;3.22;1.00;;;20.50;99.90;;;;;;5091745;28;20044;-65
2022/07/09 09:22:07;;;;;;;1.02;0.90;;;20.30;99.90;;;;;;5089176;28;20036;-66
2022/07/09 09:24:34;;;;;;;5.47;1.38;;;20.30;99.90;;;;;;5088591;28;20052;-64
2022/07/09 09:27:03;;;;;;;3.05;1.30;;;20.30;99.90;;;;;;5105924;28;20093;-66
2022/07/09 09:29:29;;;;;;;2.95;1.17;;;20.20;99.90;;;;;;5089781;28;20059;-65
2022/07/09 09:31:55;;;;;;;1.75;1.00;;;20.30;99.90;;;;;;5091492;28;20051;-66
2022/07/09 09:34:22;;;;;;;2.88;0.93;;;20.30;99.90;;;;;;5124058;27;20180;-64
2022/07/09 09:36:54;;;;;;;1.92;1.00;;;20.20;99.90;;;;;;5091538;28;20075;-65
2022/07/09 09:39:31;;;;;;;3.70;1.17;;;20.10;99.90;;;;;;5076100;28;20027;-66
2022/07/09 09:42:02;;;;;;;2.70;1.27;;;20.00;99.90;;;;;;5091984;28;20044;-65
2022/07/09 09:44:37;;;;;;;1.92;0.85;;;19.90;99.90;;;;;;5090900;28;20036;-67
2022/07/09 09:47:04;;;;;;;6.25;1.08;;;19.80;99.90;;;;;;5091614;28;20035;-65
2022/07/09 09:49:29;;;;;;;3.95;1.23;;;19.90;99.90;;;;;;5090959;28;20036;-66
2022/07/09 09:51:58;;;;;;;3.63;0.90;;;20.20;99.90;;;;;;5091516;28;20101;-66
2022/07/09 09:54:24;;;;;;;2.88;1.20;;;20.40;99.90;;;;;;5092031;28;20397;-64
2022/07/09 09:56:50;;;;;;;2.20;0.90;;;20.50;99.90;;;;;;5071481;28;20036;-65
2022/07/09 09:59:16;;;;;;;2.05;1.00;;;20.80;99.90;;;;;;5090947;28;20075;-65
2022/07/09 10:01:43;;;;;;;3.97;0.70;;;21.10;99.90;;;;;;5090490;28;20061;-64
2022/07/09 10:04:10;;;;;;;2.63;0.85;;;21.40;99.90;;;;;;5089457;28;20048;-66
2022/07/09 10:06:37;;;;;;;3.72;0.88;;;21.50;99.90;;;;;;5091905;28;20077;-65
2022/07/09 10:09:04;;;;;;;3.08;0.80;;;21.50;99.90;;;;;;5091313;28;20044;-65
2022/07/09 10:11:46;;;;;;;2.60;1.13;;;21.40;99.90;;;;;;5090843;28;20044;-65
2022/07/09 10:14:36;;;;;;;5.05;0.90;;;21.50;99.90;;;;;;5088674;28;20105;-66
2022/07/09 10:17:15;;;;;;;5.28;0.80;;;21.70;99.90;;;;;;5088275;28;20032;-64
2022/07/09 10:19:55;;;;;;;1.27;0.65;;;21.70;99.90;;;;;;5090801;28;20038;-64
2022/07/09 10:22:41;;;;;;;3.03;0.80;;;21.80;99.90;;;;;;5091161;28;20028;-65
2022/07/09 10:25:08;;;;;;;2.08;0.70;;;22.00;99.90;;;;;;5089133;28;20040;-65
2022/07/09 10:27:44;;;;;;;3.70;0.77;;;21.80;99.90;;;;;;5118438;27;20047;-65
2022/07/09 10:30:22;;;;;;;3.40;0.70;;;21.80;99.90;;;;;;5124029;27;20130;-66
2022/07/09 10:33:02;;;;;;;6.18;1.10;;;21.80;99.90;;;;;;5091584;28;20055;-66
2022/07/09 10:35:28;;;;;;;2.83;0.80;;;21.60;99.90;;;;;;5083071;28;20129;-66
2022/07/09 10:37:54;;;;;;;2.50;0.68;;;21.60;99.90;;;;;;5106335;28;20842;-66
2022/07/09 10:40:21;;;;;;;3.15;0.80;;;21.50;99.90;;;;;;5088974;28;20042;-66
2022/07/09 10:43:01;;;;;;;3.58;1.05;;;21.40;99.90;;;;;;5088778;28;20097;-66
2022/07/09 10:45:31;;;;;;;4.13;1.00;;;21.20;99.90;;;;;;5069960;28;20093;-66
2022/07/09 10:48:01;;;;;;;1.73;0.85;;;21.10;99.90;;;;;;5089278;28;20090;-65
2022/07/09 10:50:29;;;;;;;3.97;0.80;;;21.10;99.90;;;;;;5090002;28;20055;-64
2022/07/09 10:52:55;;;;;;;3.25;0.98;;;21.20;99.90;;;;;;5088873;28;20123;-65
2022/07/09 10:55:25;;;;;;;3.40;0.88;;;21.50;99.90;;;;;;5091147;28;20081;-65
2022/07/09 10:57:51;;;;;;;2.45;0.80;;;21.60;99.90;;;;;;5090060;28;20380;-66
2022/07/09 11:00:22;;;;;;;2.50;0.60;;;21.70;99.90;;;;;;5091069;28;20395;-66
2022/07/09 11:03:02;;;;;;;3.38;0.90;;;21.60;99.90;;;;;;5089909;28;20090;-66
2022/07/09 11:05:29;;;;;;;4.22;0.90;;;21.50;99.90;;;;;;5089064;28;20133;-65
2022/07/09 11:08:07;;;;;;;3.67;0.93;;;21.50;99.90;;;;;;5084113;28;20032;-65
2022/07/09 11:10:37;;;;;;;3.08;0.70;;;21.60;99.90;;;;;;5122384;27;20052;-64
2022/07/09 11:13:06;;;;;;;2.25;0.88;;;21.80;99.90;;;;;;5089496;28;20134;-66
2022/07/09 11:15:35;;;;;;;3.88;1.00;;;21.90;99.90;;;;;;5088166;28;20040;-65
2022/07/09 11:18:02;;;;;;;4.95;1.13;;;22.00;99.90;;;;;;5089358;28;20051;-66
2022/07/09 11:20:29;;;;;;;4.57;0.90;;;22.10;99.90;;;;;;5089190;28;20500;-65
2022/07/09 11:23:00;;;;;;;4.05;1.25;;;22.20;99.90;;;;;;5089548;28;20181;-64
2022/07/09 11:25:27;;;;;;;5.30;0.93;;;22.40;99.90;;;;;;5092642;28;20040;-64
2022/07/09 11:27:58;;;;;;;4.25;0.90;;;22.30;99.90;;;;;;5089499;28;20555;-65
2022/07/09 11:30:24;;;;;;;6.53;1.20;;;22.10;99.90;;;;;;5088095;28;20051;-65
2022/07/09 11:32:50;;;;;;;3.05;0.90;;;21.90;99.90;;;;;;5090660;28;20032;-65
2022/07/09 11:35:29;;;;;;;1.63;0.63;;;21.50;99.90;;;;;;5089774;28;20032;-64
2022/07/09 11:37:56;;;;;;;1.80;0.73;;;21.50;99.90;;;;;;5094008;28;20031;-65
2022/07/09 11:40:22;;;;;;;3.40;1.02;;;21.30;99.90;;;;;;5089156;28;20032;-65
2022/07/09 11:42:49;;;;;;;6.28;1.10;;;21.30;99.90;;;;;;5089330;28;20047;-65
2022/07/09 11:45:15;;;;;;;4.50;1.33;;;21.10;99.90;;;;;;5071826;28;20119;-66
2022/07/09 11:47:41;;;;;;;6.40;1.20;;;20.80;99.90;;;;;;5089525;28;20046;-66
2022/07/09 11:50:18;;;;;;;6.10;1.58;;;20.50;99.90;;;;;;5072193;28;20075;-65
2022/07/09 11:52:45;;;;;;;6.40;1.67;;;20.40;99.90;;;;;;5088680;28;20043;-66
2022/07/09 11:55:13;;;;;;;6.10;1.75;;;20.40;99.90;;;;;;5087710;28;20046;-65
2022/07/09 11:57:49;;;;;;;5.43;1.20;;;20.40;99.90;;;;;;5123494;27;20256;-63
2022/07/09 12:00:42;;;;;;;6.53;1.50;;;20.40;99.90;;;;;;5090431;28;20040;-63
2022/07/09 12:03:08;;;;;;;6.72;1.40;;;20.40;99.90;;;;;;5086995;28;20117;-65
2022/07/09 12:05:36;;;;;;;4.60;1.27;;;20.60;99.90;;;;;;5087870;28;20039;-64
2022/07/09 12:08:05;;;;;;;6.22;1.40;;;20.70;99.90;;;;;;5090987;28;20046;-65
2022/07/09 12:10:37;;;;;;;7.18;1.52;;;20.80;99.90;;;;;;5087949;28;20075;-65
2022/07/09 12:13:05;;;;;;;6.07;1.50;;;21.00;99.90;;;;;;5085801;28;21414;-65
2022/07/09 12:15:31;;;;;;;7.00;1.33;;;21.20;99.90;;;;;;5086034;28;20497;-65
2022/07/09 12:17:58;;;;;;;6.18;1.55;;;21.30;99.90;;;;;;5085940;28;20483;-65
2022/07/09 12:20:26;;;;;;;4.55;1.50;;;21.20;99.90;;;;;;5086405;28;20028;-66
2022/07/09 12:22:52;;;;;;;4.57;1.30;;;21.20;99.90;;;;;;5085910;28;20102;-66
2022/07/09 12:25:19;;;;;;;4.65;1.08;;;21.10;99.90;;;;;;5115898;27;20048;-65
2022/07/09 12:27:45;;;;;;;5.10;1.30;;;20.90;99.90;;;;;;5089467;28;20134;-65
2022/07/09 12:30:12;;;;;;;4.60;1.20;;;21.00;99.90;;;;;;5088064;28;20077;-66
2022/07/09 12:32:38;;;;;;;3.45;1.27;;;21.10;99.90;;;;;;5088322;28;20044;-66
2022/07/09 12:35:05;;;;;;;4.90;1.40;;;21.20;99.90;;;;;;5085206;28;20036;-66
2022/07/09 12:37:30;;;;;;;4.75;1.17;;;21.30;99.90;;;;;;5090344;28;20035;-65
2022/07/09 12:39:56;;;;;;;4.35;0.90;;;21.30;99.90;;;;;;5122566;28;20111;-66
2022/07/09 12:42:22;;;;;;;4.60;1.00;;;21.30;99.90;;;;;;5084885;28;20097;-66
2022/07/09 12:44:48;;;;;;;4.07;0.95;;;21.40;99.90;;;;;;5118874;28;20511;-66